sensor_id;sensor_type;location;lat;lon;timestamp;P1;durP1;ratioP1;P2;durP2;ratioP2
20966;SDS011;10642;50.682;18.510;2022-10-31T00:00:46;18.20;;;11.97;;
20966;SDS011;10642;50.682;18.510;2022-10-31T00:03:13;19.47;;;12.87;;
20966;SDS011;10642;50.682;18.510;2022-10-31T00:05:44;24.70;;;13.63;;
20966;SDS011;10642;50.682;18.510;2022-10-31T00:08:11;29.50;;;14.00;;
20966;SDS011;10642;50.682;18.510;2022-10-31T00:10:38;23.97;;;14.27;;
20966;SDS011;10642;50.682;18.510;2022-10-31T00:13:06;29.73;;;14.73;;
20966;SDS011;10642;50.682;18.510;2022-10-31T00:15:33;25.77;;;13.57;;
20966;SDS011;10642;50.682;18.510;2022-10-31T00:18:00;23.27;;;14.10;;
20966;SDS011;10642;50.682;18.510;2022-10-31T00:20:28;22.90;;;13.30;;
20966;SDS011;10642;50.682;18.510;2022-10-31T00:22:58;22.77;;;13.90;;
20966;SDS011;10642;50.682;18.510;2022-10-31T00:25:26;22.27;;;13.33;;
20966;SDS011;10642;50.682;18.510;2022-10-31T00:27:53;19.73;;;12.00;;
20966;SDS011;10642;50.682;18.510;2022-10-31T00:30:20;22.80;;;11.47;;
20966;SDS011;10642;50.682;18.510;2022-10-31T00:32:47;15.87;;;10.83;;
20966;SDS011;10642;50.682;18.510;2022-10-31T00:35:14;19.93;;;11.67;;
20966;SDS011;10642;50.682;18.510;2022-10-31T00:37:42;19.20;;;12.33;;
20966;SDS011;10642;50.682;18.510;2022-10-31T00:40:09;22.63;;;12.43;;
20966;SDS011;10642;50.682;18.510;2022-10-31T00:42:36;19.17;;;11.97;;
20966;SDS011;10642;50.682;18.510;2022-10-31T00:45:03;18.10;;;11.37;;
20966;SDS011;10642;50.682;18.510;2022-10-31T00:47:30;19.47;;;12.30;;
20966;SDS011;10642;50.682;18.510;2022-10-31T00:49:57;16.73;;;10.37;;
20966;SDS011;10642;50.682;18.510;2022-10-31T00:52:24;18.33;;;12.00;;
20966;SDS011;10642;50.682;18.510;2022-10-31T00:54:51;16.67;;;11.77;;
20966;SDS011;10642;50.682;18.510;2022-10-31T00:57:18;20.17;;;11.73;;
20966;SDS011;10642;50.682;18.510;2022-10-31T00:59:45;17.50;;;11.53;;
20966;SDS011;10642;50.682;18.510;2022-10-31T01:02:12;16.30;;;10.70;;
20966;SDS011;10642;50.682;18.510;2022-10-31T01:04:39;20.67;;;10.90;;
20966;SDS011;10642;50.682;18.510;2022-10-31T01:07:06;19.40;;;11.93;;
20966;SDS011;10642;50.682;18.510;2022-10-31T01:09:34;22.17;;;12.80;;
20966;SDS011;10642;50.682;18.510;2022-10-31T01:12:00;18.70;;;11.73;;
20966;SDS011;10642;50.682;18.510;2022-10-31T01:17:20;18.70;;;11.67;;
20966;SDS011;10642;50.682;18.510;2022-10-31T01:19:47;21.17;;;12.43;;
20966;SDS011;10642;50.682;18.510;2022-10-31T01:22:14;21.57;;;12.70;;
20966;SDS011;10642;50.682;18.510;2022-10-31T01:24:41;19.87;;;11.87;;
20966;SDS011;10642;50.682;18.510;2022-10-31T01:27:08;19.17;;;11.73;;
20966;SDS011;10642;50.682;18.510;2022-10-31T01:29:35;19.27;;;11.70;;
20966;SDS011;10642;50.682;18.510;2022-10-31T01:32:01;21.50;;;12.03;;
20966;SDS011;10642;50.682;18.510;2022-10-31T01:34:28;20.03;;;11.30;;
20966;SDS011;10642;50.682;18.510;2022-10-31T01:36:55;20.00;;;11.87;;
20966;SDS011;10642;50.682;18.510;2022-10-31T01:39:22;20.27;;;11.80;;
20966;SDS011;10642;50.682;18.510;2022-10-31T01:41:50;19.50;;;11.83;;
20966;SDS011;10642;50.682;18.510;2022-10-31T01:49:20;20.70;;;11.13;;
20966;SDS011;10642;50.682;18.510;2022-10-31T01:51:49;26.00;;;13.97;;
20966;SDS011;10642;50.682;18.510;2022-10-31T01:54:18;24.50;;;15.57;;
20966;SDS011;10642;50.682;18.510;2022-10-31T01:56:47;29.30;;;14.83;;
20966;SDS011;10642;50.682;18.510;2022-10-31T01:59:17;25.60;;;14.63;;
20966;SDS011;10642;50.682;18.510;2022-10-31T02:01:45;21.63;;;11.03;;
20966;SDS011;10642;50.682;18.510;2022-10-31T02:04:13;19.67;;;11.43;;
20966;SDS011;10642;50.682;18.510;2022-10-31T02:06:51;19.80;;;12.67;;
20966;SDS011;10642;50.682;18.510;2022-10-31T02:09:20;20.00;;;12.13;;
20966;SDS011;10642;50.682;18.510;2022-10-31T02:11:54;22.93;;;13.33;;
20966;SDS011;10642;50.682;18.510;2022-10-31T02:14:22;23.37;;;12.90;;
20966;SDS011;10642;50.682;18.510;2022-10-31T02:16:50;29.33;;;13.23;;
20966;SDS011;10642;50.682;18.510;2022-10-31T02:19:19;28.83;;;13.83;;
20966;SDS011;10642;50.682;18.510;2022-10-31T02:21:53;20.33;;;11.97;;
20966;SDS011;10642;50.682;18.510;2022-10-31T02:34:58;28.90;;;12.80;;
20966;SDS011;10642;50.682;18.510;2022-10-31T02:37:34;21.80;;;12.70;;
20966;SDS011;10642;50.682;18.510;2022-10-31T02:40:12;25.50;;;13.83;;
20966;SDS011;10642;50.682;18.510;2022-10-31T02:43:00;25.23;;;13.13;;
20966;SDS011;10642;50.682;18.510;2022-10-31T02:45:35;24.63;;;12.67;;
20966;SDS011;10642;50.682;18.510;2022-10-31T02:48:13;18.47;;;11.23;;
20966;SDS011;10642;50.682;18.510;2022-10-31T02:50:45;19.83;;;12.10;;
20966;SDS011;10642;50.682;18.510;2022-10-31T02:53:16;23.33;;;12.23;;
20966;SDS011;10642;50.682;18.510;2022-10-31T02:58:51;28.43;;;14.20;;
20966;SDS011;10642;50.682;18.510;2022-10-31T03:01:30;24.67;;;12.53;;
20966;SDS011;10642;50.682;18.510;2022-10-31T03:06:40;25.87;;;12.50;;
20966;SDS011;10642;50.682;18.510;2022-10-31T03:09:12;24.87;;;11.97;;
20966;SDS011;10642;50.682;18.510;2022-10-31T03:11:53;20.63;;;11.97;;
20966;SDS011;10642;50.682;18.510;2022-10-31T03:14:22;23.97;;;13.00;;
20966;SDS011;10642;50.682;18.510;2022-10-31T03:16:56;22.50;;;12.97;;
20966;SDS011;10642;50.682;18.510;2022-10-31T03:19:34;28.80;;;13.60;;
20966;SDS011;10642;50.682;18.510;2022-10-31T03:22:22;28.63;;;14.23;;
20966;SDS011;10642;50.682;18.510;2022-10-31T03:24:50;20.50;;;11.60;;
20966;SDS011;10642;50.682;18.510;2022-10-31T03:27:21;21.63;;;12.27;;
20966;SDS011;10642;50.682;18.510;2022-10-31T03:29:49;23.30;;;12.20;;
20966;SDS011;10642;50.682;18.510;2022-10-31T03:34:57;19.97;;;11.10;;
20966;SDS011;10642;50.682;18.510;2022-10-31T03:37:27;22.57;;;12.23;;
20966;SDS011;10642;50.682;18.510;2022-10-31T03:39:55;23.50;;;12.00;;
20966;SDS011;10642;50.682;18.510;2022-10-31T03:42:25;16.00;;;10.33;;
20966;SDS011;10642;50.682;18.510;2022-10-31T03:47:30;28.17;;;12.07;;
20966;SDS011;10642;50.682;18.510;2022-10-31T03:49:58;25.83;;;13.23;;
20966;SDS011;10642;50.682;18.510;2022-10-31T03:52:30;23.83;;;12.03;;
20966;SDS011;10642;50.682;18.510;2022-10-31T03:55:04;29.90;;;12.17;;
20966;SDS011;10642;50.682;18.510;2022-10-31T04:00:06;25.33;;;12.43;;
20966;SDS011;10642;50.682;18.510;2022-10-31T04:05:16;15.53;;;10.63;;
20966;SDS011;10642;50.682;18.510;2022-10-31T04:07:45;21.20;;;10.43;;
20966;SDS011;10642;50.682;18.510;2022-10-31T04:10:14;19.93;;;10.17;;
20966;SDS011;10642;50.682;18.510;2022-10-31T04:12:43;21.90;;;10.80;;
20966;SDS011;10642;50.682;18.510;2022-10-31T04:15:19;21.07;;;10.63;;
20966;SDS011;10642;50.682;18.510;2022-10-31T04:17:47;14.90;;;9.20;;
20966;SDS011;10642;50.682;18.510;2022-10-31T04:20:16;18.30;;;9.83;;
20966;SDS011;10642;50.682;18.510;2022-10-31T04:22:44;21.47;;;9.90;;
20966;SDS011;10642;50.682;18.510;2022-10-31T04:25:11;23.33;;;11.40;;
20966;SDS011;10642;50.682;18.510;2022-10-31T04:27:38;22.00;;;10.47;;
20966;SDS011;10642;50.682;18.510;2022-10-31T04:30:07;18.80;;;10.73;;
20966;SDS011;10642;50.682;18.510;2022-10-31T04:32:37;21.33;;;9.93;;
20966;SDS011;10642;50.682;18.510;2022-10-31T04:35:04;14.57;;;9.43;;
20966;SDS011;10642;50.682;18.510;2022-10-31T04:37:31;18.73;;;9.63;;
20966;SDS011;10642;50.682;18.510;2022-10-31T04:40:01;16.67;;;9.97;;
20966;SDS011;10642;50.682;18.510;2022-10-31T04:43:00;18.23;;;10.57;;
20966;SDS011;10642;50.682;18.510;2022-10-31T04:45:28;23.20;;;11.07;;
20966;SDS011;10642;50.682;18.510;2022-10-31T04:47:55;18.63;;;10.67;;
20966;SDS011;10642;50.682;18.510;2022-10-31T04:50:22;23.37;;;10.20;;
20966;SDS011;10642;50.682;18.510;2022-10-31T04:52:50;18.20;;;9.83;;
20966;SDS011;10642;50.682;18.510;2022-10-31T04:55:22;20.03;;;10.13;;
20966;SDS011;10642;50.682;18.510;2022-10-31T04:58:08;21.87;;;10.97;;
20966;SDS011;10642;50.682;18.510;2022-10-31T05:00:35;19.57;;;10.63;;
20966;SDS011;10642;50.682;18.510;2022-10-31T05:03:03;22.00;;;11.37;;
20966;SDS011;10642;50.682;18.510;2022-10-31T05:05:31;20.50;;;11.13;;
20966;SDS011;10642;50.682;18.510;2022-10-31T05:08:01;15.47;;;9.00;;
20966;SDS011;10642;50.682;18.510;2022-10-31T05:10:30;15.00;;;9.10;;
20966;SDS011;10642;50.682;18.510;2022-10-31T05:13:00;13.83;;;9.13;;
20966;SDS011;10642;50.682;18.510;2022-10-31T05:15:56;15.73;;;8.77;;
20966;SDS011;10642;50.682;18.510;2022-10-31T05:18:42;13.80;;;8.47;;
20966;SDS011;10642;50.682;18.510;2022-10-31T05:21:28;12.33;;;7.93;;
20966;SDS011;10642;50.682;18.510;2022-10-31T05:24:00;14.00;;;9.17;;
20966;SDS011;10642;50.682;18.510;2022-10-31T05:26:28;15.40;;;8.10;;
20966;SDS011;10642;50.682;18.510;2022-10-31T05:28:55;20.30;;;10.87;;
20966;SDS011;10642;50.682;18.510;2022-10-31T05:31:22;21.27;;;10.43;;
20966;SDS011;10642;50.682;18.510;2022-10-31T05:33:50;22.10;;;10.20;;
20966;SDS011;10642;50.682;18.510;2022-10-31T05:36:32;22.67;;;11.53;;
20966;SDS011;10642;50.682;18.510;2022-10-31T05:39:02;25.60;;;13.27;;
20966;SDS011;10642;50.682;18.510;2022-10-31T05:41:34;21.37;;;11.13;;
20966;SDS011;10642;50.682;18.510;2022-10-31T05:44:08;20.00;;;11.03;;
20966;SDS011;10642;50.682;18.510;2022-10-31T05:46:48;17.73;;;10.23;;
20966;SDS011;10642;50.682;18.510;2022-10-31T05:49:44;24.00;;;10.40;;
20966;SDS011;10642;50.682;18.510;2022-10-31T05:52:23;20.50;;;11.77;;
20966;SDS011;10642;50.682;18.510;2022-10-31T05:54:58;26.70;;;12.93;;
20966;SDS011;10642;50.682;18.510;2022-10-31T05:57:28;21.97;;;10.43;;
20966;SDS011;10642;50.682;18.510;2022-10-31T05:59:55;20.20;;;10.67;;
20966;SDS011;10642;50.682;18.510;2022-10-31T06:02:22;24.23;;;11.13;;
20966;SDS011;10642;50.682;18.510;2022-10-31T06:05:10;12.57;;;8.73;;
20966;SDS011;10642;50.682;18.510;2022-10-31T06:07:37;22.43;;;9.97;;
20966;SDS011;10642;50.682;18.510;2022-10-31T06:10:05;21.07;;;10.13;;
20966;SDS011;10642;50.682;18.510;2022-10-31T06:12:33;15.70;;;9.17;;
20966;SDS011;10642;50.682;18.510;2022-10-31T06:15:33;20.27;;;12.00;;
20966;SDS011;10642;50.682;18.510;2022-10-31T06:18:04;25.03;;;12.40;;
20966;SDS011;10642;50.682;18.510;2022-10-31T06:20:44;19.73;;;9.97;;
20966;SDS011;10642;50.682;18.510;2022-10-31T06:23:11;18.83;;;10.03;;
20966;SDS011;10642;50.682;18.510;2022-10-31T06:25:40;25.23;;;13.83;;
20966;SDS011;10642;50.682;18.510;2022-10-31T06:28:07;18.50;;;11.13;;
20966;SDS011;10642;50.682;18.510;2022-10-31T06:30:45;19.83;;;12.30;;
20966;SDS011;10642;50.682;18.510;2022-10-31T06:33:12;17.97;;;10.70;;
20966;SDS011;10642;50.682;18.510;2022-10-31T06:35:47;20.67;;;11.37;;
20966;SDS011;10642;50.682;18.510;2022-10-31T06:38:16;24.17;;;11.77;;
20966;SDS011;10642;50.682;18.510;2022-10-31T06:40:43;22.30;;;12.33;;
20966;SDS011;10642;50.682;18.510;2022-10-31T06:43:21;23.20;;;12.47;;
20966;SDS011;10642;50.682;18.510;2022-10-31T06:45:52;26.13;;;13.67;;
20966;SDS011;10642;50.682;18.510;2022-10-31T06:48:33;21.93;;;13.27;;
20966;SDS011;10642;50.682;18.510;2022-10-31T06:51:17;27.63;;;12.90;;
20966;SDS011;10642;50.682;18.510;2022-10-31T06:53:44;26.33;;;13.47;;
20966;SDS011;10642;50.682;18.510;2022-10-31T06:56:14;25.23;;;12.77;;
20966;SDS011;10642;50.682;18.510;2022-10-31T06:58:46;22.67;;;12.50;;
20966;SDS011;10642;50.682;18.510;2022-10-31T07:01:15;20.00;;;12.10;;
20966;SDS011;10642;50.682;18.510;2022-10-31T07:03:43;20.70;;;12.30;;
20966;SDS011;10642;50.682;18.510;2022-10-31T07:06:09;20.83;;;13.30;;
20966;SDS011;10642;50.682;18.510;2022-10-31T07:08:37;22.53;;;13.00;;
20966;SDS011;10642;50.682;18.510;2022-10-31T07:17:01;22.03;;;12.33;;
20966;SDS011;10642;50.682;18.510;2022-10-31T07:19:35;22.37;;;13.47;;
20966;SDS011;10642;50.682;18.510;2022-10-31T07:22:02;22.97;;;14.00;;
20966;SDS011;10642;50.682;18.510;2022-10-31T07:24:31;31.37;;;13.67;;
20966;SDS011;10642;50.682;18.510;2022-10-31T07:27:18;23.17;;;14.40;;
20966;SDS011;10642;50.682;18.510;2022-10-31T07:29:47;22.60;;;14.33;;
20966;SDS011;10642;50.682;18.510;2022-10-31T07:32:15;29.03;;;14.13;;
20966;SDS011;10642;50.682;18.510;2022-10-31T07:34:53;25.23;;;14.20;;
20966;SDS011;10642;50.682;18.510;2022-10-31T07:37:27;22.70;;;13.27;;
20966;SDS011;10642;50.682;18.510;2022-10-31T07:40:04;21.73;;;13.13;;
20966;SDS011;10642;50.682;18.510;2022-10-31T07:42:39;25.70;;;13.80;;
20966;SDS011;10642;50.682;18.510;2022-10-31T07:45:16;25.67;;;13.30;;
20966;SDS011;10642;50.682;18.510;2022-10-31T07:48:03;21.80;;;12.57;;
20966;SDS011;10642;50.682;18.510;2022-10-31T07:51:01;23.30;;;13.10;;
20966;SDS011;10642;50.682;18.510;2022-10-31T07:53:57;17.63;;;11.60;;
20966;SDS011;10642;50.682;18.510;2022-10-31T07:56:28;27.03;;;12.67;;
20966;SDS011;10642;50.682;18.510;2022-10-31T07:58:55;21.43;;;12.10;;
20966;SDS011;10642;50.682;18.510;2022-10-31T08:01:22;19.87;;;11.40;;
20966;SDS011;10642;50.682;18.510;2022-10-31T08:04:08;18.43;;;10.50;;
20966;SDS011;10642;50.682;18.510;2022-10-31T08:07:14;19.13;;;11.03;;
20966;SDS011;10642;50.682;18.510;2022-10-31T08:09:50;19.77;;;11.10;;
20966;SDS011;10642;50.682;18.510;2022-10-31T08:12:20;21.77;;;10.93;;
20966;SDS011;10642;50.682;18.510;2022-10-31T08:14:47;23.93;;;12.23;;
20966;SDS011;10642;50.682;18.510;2022-10-31T08:17:16;19.73;;;11.80;;
20966;SDS011;10642;50.682;18.510;2022-10-31T08:19:54;25.47;;;12.17;;
20966;SDS011;10642;50.682;18.510;2022-10-31T08:22:34;24.03;;;13.30;;
20966;SDS011;10642;50.682;18.510;2022-10-31T08:25:08;25.13;;;14.67;;
20966;SDS011;10642;50.682;18.510;2022-10-31T08:27:36;25.27;;;14.97;;
20966;SDS011;10642;50.682;18.510;2022-10-31T08:30:03;26.20;;;14.80;;
20966;SDS011;10642;50.682;18.510;2022-10-31T08:32:31;25.83;;;14.47;;
20966;SDS011;10642;50.682;18.510;2022-10-31T08:35:31;26.80;;;16.03;;
20966;SDS011;10642;50.682;18.510;2022-10-31T08:38:36;25.80;;;13.47;;
20966;SDS011;10642;50.682;18.510;2022-10-31T08:41:07;24.57;;;14.03;;
20966;SDS011;10642;50.682;18.510;2022-10-31T08:43:34;22.90;;;11.53;;
20966;SDS011;10642;50.682;18.510;2022-10-31T08:46:00;22.87;;;11.53;;
20966;SDS011;10642;50.682;18.510;2022-10-31T08:48:28;26.07;;;11.67;;
20966;SDS011;10642;50.682;18.510;2022-10-31T08:50:56;19.87;;;11.53;;
20966;SDS011;10642;50.682;18.510;2022-10-31T08:53:25;30.60;;;12.00;;
20966;SDS011;10642;50.682;18.510;2022-10-31T08:56:12;23.90;;;11.80;;
20966;SDS011;10642;50.682;18.510;2022-10-31T08:58:40;21.90;;;11.97;;
20966;SDS011;10642;50.682;18.510;2022-10-31T09:01:08;30.40;;;11.80;;
20966;SDS011;10642;50.682;18.510;2022-10-31T09:03:35;26.73;;;12.70;;
20966;SDS011;10642;50.682;18.510;2022-10-31T09:06:04;20.93;;;11.10;;
20966;SDS011;10642;50.682;18.510;2022-10-31T09:08:36;17.37;;;9.93;;
20966;SDS011;10642;50.682;18.510;2022-10-31T09:11:03;22.53;;;11.53;;
20966;SDS011;10642;50.682;18.510;2022-10-31T09:13:59;29.97;;;10.33;;
20966;SDS011;10642;50.682;18.510;2022-10-31T09:16:46;28.00;;;11.37;;
20966;SDS011;10642;50.682;18.510;2022-10-31T09:19:20;27.03;;;11.47;;
20966;SDS011;10642;50.682;18.510;2022-10-31T09:21:47;29.23;;;11.00;;
20966;SDS011;10642;50.682;18.510;2022-10-31T09:24:14;24.97;;;11.00;;
20966;SDS011;10642;50.682;18.510;2022-10-31T09:26:41;24.53;;;11.90;;
20966;SDS011;10642;50.682;18.510;2022-10-31T09:29:25;21.00;;;11.30;;
20966;SDS011;10642;50.682;18.510;2022-10-31T09:31:56;23.57;;;11.33;;
20966;SDS011;10642;50.682;18.510;2022-10-31T09:34:28;21.37;;;11.70;;
20966;SDS011;10642;50.682;18.510;2022-10-31T09:37:06;23.30;;;11.97;;
20966;SDS011;10642;50.682;18.510;2022-10-31T09:39:34;24.43;;;12.23;;
20966;SDS011;10642;50.682;18.510;2022-10-31T09:50:31;25.73;;;10.70;;
20966;SDS011;10642;50.682;18.510;2022-10-31T09:56:02;24.80;;;10.13;;
20966;SDS011;10642;50.682;18.510;2022-10-31T09:58:32;20.30;;;9.60;;
20966;SDS011;10642;50.682;18.510;2022-10-31T10:01:04;17.70;;;9.47;;
20966;SDS011;10642;50.682;18.510;2022-10-31T10:06:14;17.97;;;9.17;;
20966;SDS011;10642;50.682;18.510;2022-10-31T10:09:20;22.10;;;9.00;;
20966;SDS011;10642;50.682;18.510;2022-10-31T10:12:36;16.43;;;8.07;;
20966;SDS011;10642;50.682;18.510;2022-10-31T10:22:54;20.00;;;8.23;;
20966;SDS011;10642;50.682;18.510;2022-10-31T10:30:36;21.80;;;8.80;;
20966;SDS011;10642;50.682;18.510;2022-10-31T10:33:08;27.57;;;8.07;;
20966;SDS011;10642;50.682;18.510;2022-10-31T10:35:39;18.83;;;7.80;;
20966;SDS011;10642;50.682;18.510;2022-10-31T10:40:34;18.60;;;8.13;;
20966;SDS011;10642;50.682;18.510;2022-10-31T10:48:42;12.33;;;7.30;;
20966;SDS011;10642;50.682;18.510;2022-10-31T10:51:17;18.47;;;7.30;;
20966;SDS011;10642;50.682;18.510;2022-10-31T10:59:33;22.23;;;8.90;;
20966;SDS011;10642;50.682;18.510;2022-10-31T11:02:00;19.90;;;8.07;;
20966;SDS011;10642;50.682;18.510;2022-10-31T11:04:32;17.93;;;7.67;;
20966;SDS011;10642;50.682;18.510;2022-10-31T11:07:05;20.13;;;7.43;;
20966;SDS011;10642;50.682;18.510;2022-10-31T11:09:32;17.63;;;7.57;;
20966;SDS011;10642;50.682;18.510;2022-10-31T11:11:59;21.60;;;7.43;;
20966;SDS011;10642;50.682;18.510;2022-10-31T11:14:27;25.20;;;8.80;;
20966;SDS011;10642;50.682;18.510;2022-10-31T11:16:55;16.93;;;7.43;;
20966;SDS011;10642;50.682;18.510;2022-10-31T11:19:33;22.53;;;8.97;;
20966;SDS011;10642;50.682;18.510;2022-10-31T11:22:07;21.60;;;8.33;;
20966;SDS011;10642;50.682;18.510;2022-10-31T11:24:39;19.90;;;7.50;;
20966;SDS011;10642;50.682;18.510;2022-10-31T11:27:14;16.00;;;8.50;;
20966;SDS011;10642;50.682;18.510;2022-10-31T11:29:41;19.77;;;7.43;;
20966;SDS011;10642;50.682;18.510;2022-10-31T11:32:15;22.40;;;8.13;;
20966;SDS011;10642;50.682;18.510;2022-10-31T11:34:43;16.93;;;7.93;;
20966;SDS011;10642;50.682;18.510;2022-10-31T11:37:13;16.47;;;7.47;;
20966;SDS011;10642;50.682;18.510;2022-10-31T11:39:41;20.13;;;8.17;;
20966;SDS011;10642;50.682;18.510;2022-10-31T11:42:09;16.93;;;7.57;;
20966;SDS011;10642;50.682;18.510;2022-10-31T11:44:36;22.77;;;9.03;;
20966;SDS011;10642;50.682;18.510;2022-10-31T11:47:03;22.63;;;8.43;;
20966;SDS011;10642;50.682;18.510;2022-10-31T11:49:33;16.90;;;7.67;;
20966;SDS011;10642;50.682;18.510;2022-10-31T11:52:06;14.70;;;7.40;;
20966;SDS011;10642;50.682;18.510;2022-10-31T11:54:38;19.30;;;9.00;;
20966;SDS011;10642;50.682;18.510;2022-10-31T11:57:21;25.47;;;8.73;;
20966;SDS011;10642;50.682;18.510;2022-10-31T11:59:52;15.40;;;7.83;;
20966;SDS011;10642;50.682;18.510;2022-10-31T12:02:20;18.80;;;7.70;;
20966;SDS011;10642;50.682;18.510;2022-10-31T12:04:49;21.73;;;7.90;;
20966;SDS011;10642;50.682;18.510;2022-10-31T12:07:18;19.93;;;8.47;;
20966;SDS011;10642;50.682;18.510;2022-10-31T12:09:45;20.43;;;7.63;;
20966;SDS011;10642;50.682;18.510;2022-10-31T12:12:29;19.73;;;7.27;;
20966;SDS011;10642;50.682;18.510;2022-10-31T12:17:47;26.83;;;8.27;;
20966;SDS011;10642;50.682;18.510;2022-10-31T12:25:26;16.47;;;7.53;;
20966;SDS011;10642;50.682;18.510;2022-10-31T12:38:32;14.43;;;6.87;;
20966;SDS011;10642;50.682;18.510;2022-10-31T12:46:30;17.03;;;6.40;;
20966;SDS011;10642;50.682;18.510;2022-10-31T12:54:18;15.87;;;7.77;;
20966;SDS011;10642;50.682;18.510;2022-10-31T12:56:56;13.10;;;6.73;;
20966;SDS011;10642;50.682;18.510;2022-10-31T12:59:30;19.97;;;6.73;;
20966;SDS011;10642;50.682;18.510;2022-10-31T13:07:20;15.83;;;7.13;;
20966;SDS011;10642;50.682;18.510;2022-10-31T13:09:51;17.70;;;7.53;;
20966;SDS011;10642;50.682;18.510;2022-10-31T13:12:20;17.50;;;7.33;;
20966;SDS011;10642;50.682;18.510;2022-10-31T13:14:49;19.67;;;6.90;;
20966;SDS011;10642;50.682;18.510;2022-10-31T13:17:22;18.73;;;7.47;;
20966;SDS011;10642;50.682;18.510;2022-10-31T13:19:51;17.43;;;7.63;;
20966;SDS011;10642;50.682;18.510;2022-10-31T13:22:24;13.97;;;6.93;;
20966;SDS011;10642;50.682;18.510;2022-10-31T13:27:24;13.40;;;7.60;;
20966;SDS011;10642;50.682;18.510;2022-10-31T13:30:02;21.10;;;7.57;;
20966;SDS011;10642;50.682;18.510;2022-10-31T13:32:41;15.37;;;7.43;;
20966;SDS011;10642;50.682;18.510;2022-10-31T13:35:14;18.00;;;7.73;;
20966;SDS011;10642;50.682;18.510;2022-10-31T13:37:44;19.53;;;6.80;;
20966;SDS011;10642;50.682;18.510;2022-10-31T13:40:34;15.97;;;7.20;;
20966;SDS011;10642;50.682;18.510;2022-10-31T13:45:47;14.83;;;7.83;;
20966;SDS011;10642;50.682;18.510;2022-10-31T13:50:41;20.27;;;6.67;;
20966;SDS011;10642;50.682;18.510;2022-10-31T13:53:13;15.73;;;7.00;;
20966;SDS011;10642;50.682;18.510;2022-10-31T13:55:44;15.63;;;7.00;;
20966;SDS011;10642;50.682;18.510;2022-10-31T14:04:07;15.83;;;7.33;;
20966;SDS011;10642;50.682;18.510;2022-10-31T14:09:19;14.87;;;7.53;;
20966;SDS011;10642;50.682;18.510;2022-10-31T14:11:47;14.27;;;6.70;;
20966;SDS011;10642;50.682;18.510;2022-10-31T14:14:14;16.60;;;6.20;;
20966;SDS011;10642;50.682;18.510;2022-10-31T14:16:42;42.90;;;14.43;;
20966;SDS011;10642;50.682;18.510;2022-10-31T14:19:14;153.17;;;44.70;;
20966;SDS011;10642;50.682;18.510;2022-10-31T14:21:44;407.17;;;114.37;;
20966;SDS011;10642;50.682;18.510;2022-10-31T14:26:51;389.93;;;109.37;;
20966;SDS011;10642;50.682;18.510;2022-10-31T14:31:51;127.03;;;40.53;;
20966;SDS011;10642;50.682;18.510;2022-10-31T14:34:23;27.77;;;14.23;;
20966;SDS011;10642;50.682;18.510;2022-10-31T14:36:54;49.03;;;24.10;;
20966;SDS011;10642;50.682;18.510;2022-10-31T14:44:34;17.77;;;7.53;;
20966;SDS011;10642;50.682;18.510;2022-10-31T14:52:34;17.97;;;6.53;;
20966;SDS011;10642;50.682;18.510;2022-10-31T14:55:02;16.57;;;6.40;;
20966;SDS011;10642;50.682;18.510;2022-10-31T14:57:32;13.97;;;6.30;;
20966;SDS011;10642;50.682;18.510;2022-10-31T15:00:21;16.23;;;6.30;;
20966;SDS011;10642;50.682;18.510;2022-10-31T15:02:56;19.53;;;6.43;;
20966;SDS011;10642;50.682;18.510;2022-10-31T15:05:27;23.53;;;6.73;;
20966;SDS011;10642;50.682;18.510;2022-10-31T15:07:55;16.80;;;7.00;;
20966;SDS011;10642;50.682;18.510;2022-10-31T15:10:32;18.17;;;7.47;;
20966;SDS011;10642;50.682;18.510;2022-10-31T15:13:19;16.17;;;7.60;;
20966;SDS011;10642;50.682;18.510;2022-10-31T15:15:46;28.93;;;6.57;;
20966;SDS011;10642;50.682;18.510;2022-10-31T15:18:20;28.00;;;8.10;;
20966;SDS011;10642;50.682;18.510;2022-10-31T15:20:47;25.20;;;7.40;;
20966;SDS011;10642;50.682;18.510;2022-10-31T15:23:16;18.80;;;7.23;;
20966;SDS011;10642;50.682;18.510;2022-10-31T15:25:43;21.13;;;8.33;;
20966;SDS011;10642;50.682;18.510;2022-10-31T15:28:14;20.20;;;8.57;;
20966;SDS011;10642;50.682;18.510;2022-10-31T15:30:49;16.07;;;7.70;;
20966;SDS011;10642;50.682;18.510;2022-10-31T15:33:20;16.03;;;8.33;;
20966;SDS011;10642;50.682;18.510;2022-10-31T15:35:54;17.07;;;7.23;;
20966;SDS011;10642;50.682;18.510;2022-10-31T15:38:23;19.03;;;8.30;;
20966;SDS011;10642;50.682;18.510;2022-10-31T15:40:51;27.03;;;9.93;;
20966;SDS011;10642;50.682;18.510;2022-10-31T15:43:19;21.70;;;9.07;;
20966;SDS011;10642;50.682;18.510;2022-10-31T15:45:46;21.43;;;7.33;;
20966;SDS011;10642;50.682;18.510;2022-10-31T15:48:17;15.60;;;6.97;;
20966;SDS011;10642;50.682;18.510;2022-10-31T15:50:46;23.03;;;8.37;;
20966;SDS011;10642;50.682;18.510;2022-10-31T15:53:24;14.10;;;8.03;;
20966;SDS011;10642;50.682;18.510;2022-10-31T15:55:53;24.07;;;7.87;;
20966;SDS011;10642;50.682;18.510;2022-10-31T15:58:21;19.67;;;7.30;;
20966;SDS011;10642;50.682;18.510;2022-10-31T16:01:02;21.87;;;8.67;;
20966;SDS011;10642;50.682;18.510;2022-10-31T16:03:30;20.03;;;8.90;;
20966;SDS011;10642;50.682;18.510;2022-10-31T16:05:58;19.10;;;10.77;;
20966;SDS011;10642;50.682;18.510;2022-10-31T16:10:59;22.30;;;10.70;;
20966;SDS011;10642;50.682;18.510;2022-10-31T16:13:28;25.00;;;12.70;;
20966;SDS011;10642;50.682;18.510;2022-10-31T16:16:00;20.37;;;9.47;;
20966;SDS011;10642;50.682;18.510;2022-10-31T16:18:50;19.93;;;9.07;;
20966;SDS011;10642;50.682;18.510;2022-10-31T16:21:24;19.83;;;11.60;;
20966;SDS011;10642;50.682;18.510;2022-10-31T16:23:53;23.00;;;11.50;;
20966;SDS011;10642;50.682;18.510;2022-10-31T16:26:23;30.43;;;12.73;;
20966;SDS011;10642;50.682;18.510;2022-10-31T16:28:52;37.60;;;15.17;;
20966;SDS011;10642;50.682;18.510;2022-10-31T16:31:36;34.60;;;15.60;;
20966;SDS011;10642;50.682;18.510;2022-10-31T16:34:04;25.60;;;12.73;;
20966;SDS011;10642;50.682;18.510;2022-10-31T16:36:32;26.53;;;11.57;;
20966;SDS011;10642;50.682;18.510;2022-10-31T16:39:01;23.30;;;10.03;;
20966;SDS011;10642;50.682;18.510;2022-10-31T16:41:28;19.37;;;9.80;;
20966;SDS011;10642;50.682;18.510;2022-10-31T16:43:55;21.60;;;10.60;;
20966;SDS011;10642;50.682;18.510;2022-10-31T16:46:26;23.30;;;12.27;;
20966;SDS011;10642;50.682;18.510;2022-10-31T16:48:54;24.50;;;11.03;;
20966;SDS011;10642;50.682;18.510;2022-10-31T16:51:21;23.73;;;10.10;;
20966;SDS011;10642;50.682;18.510;2022-10-31T16:53:49;16.73;;;8.20;;
20966;SDS011;10642;50.682;18.510;2022-10-31T16:56:21;26.57;;;11.93;;
20966;SDS011;10642;50.682;18.510;2022-10-31T16:58:50;30.17;;;12.37;;
20966;SDS011;10642;50.682;18.510;2022-10-31T17:01:17;25.73;;;10.37;;
20966;SDS011;10642;50.682;18.510;2022-10-31T17:03:44;32.73;;;16.00;;
20966;SDS011;10642;50.682;18.510;2022-10-31T17:06:14;37.40;;;12.43;;
20966;SDS011;10642;50.682;18.510;2022-10-31T17:08:41;46.33;;;20.03;;
20966;SDS011;10642;50.682;18.510;2022-10-31T17:11:08;74.90;;;28.80;;